sensor_id;sensor_type;location;lat;lon;timestamp;temperature;humidity
33881;DHT22;20172;47.530;10.256;2023-06-14T00:01:52;13.40;80.40
33881;DHT22;20172;47.530;10.256;2023-06-14T00:04:17;13.20;80.50
33881;DHT22;20172;47.530;10.256;2023-06-14T00:06:44;13.00;81.40
33881;DHT22;20172;47.530;10.256;2023-06-14T00:09:14;12.90;82.70
33881;DHT22;20172;47.530;10.256;2023-06-14T00:11:43;12.70;83.40
33881;DHT22;20172;47.530;10.256;2023-06-14T00:14:09;12.70;84.00
33881;DHT22;20172;47.530;10.256;2023-06-14T00:16:35;12.60;84.40
33881;DHT22;20172;47.530;10.256;2023-06-14T00:19:02;12.50;84.10
33881;DHT22;20172;47.530;10.256;2023-06-14T00:21:31;12.40;84.20
33881;DHT22;20172;47.530;10.256;2023-06-14T00:24:09;12.40;85.10
33881;DHT22;20172;47.530;10.256;2023-06-14T00:26:35;12.60;85.10
33881;DHT22;20172;47.530;10.256;2023-06-14T00:29:01;12.60;85.30
33881;DHT22;20172;47.530;10.256;2023-06-14T00:31:30;12.80;85.60
33881;DHT22;20172;47.530;10.256;2023-06-14T00:33:56;12.80;85.90
33881;DHT22;20172;47.530;10.256;2023-06-14T00:36:23;12.70;86.30
33881;DHT22;20172;47.530;10.256;2023-06-14T00:38:52;12.60;86.70
33881;DHT22;20172;47.530;10.256;2023-06-14T00:41:24;12.60;86.80
33881;DHT22;20172;47.530;10.256;2023-06-14T00:43:50;12.50;86.20
33881;DHT22;20172;47.530;10.256;2023-06-14T00:46:17;12.50;84.70
33881;DHT22;20172;47.530;10.256;2023-06-14T00:48:52;12.50;85.30
33881;DHT22;20172;47.530;10.256;2023-06-14T00:51:19;12.60;86.60
33881;DHT22;20172;47.530;10.256;2023-06-14T00:54:07;12.60;86.00
33881;DHT22;20172;47.530;10.256;2023-06-14T00:56:37;12.60;87.80
33881;DHT22;20172;47.530;10.256;2023-06-14T00:59:03;12.60;86.60
33881;DHT22;20172;47.530;10.256;2023-06-14T01:01:36;12.40;85.10
33881;DHT22;20172;47.530;10.256;2023-06-14T01:04:05;12.30;86.20
33881;DHT22;20172;47.530;10.256;2023-06-14T01:06:43;12.10;86.30
33881;DHT22;20172;47.530;10.256;2023-06-14T01:09:33;11.90;87.60
33881;DHT22;20172;47.530;10.256;2023-06-14T01:12:21;11.80;87.50
33881;DHT22;20172;47.530;10.256;2023-06-14T01:15:01;11.90;87.10
33881;DHT22;20172;47.530;10.256;2023-06-14T01:17:31;11.90;87.80
33881;DHT22;20172;47.530;10.256;2023-06-14T01:20:32;12.00;88.00
33881;DHT22;20172;47.530;10.256;2023-06-14T01:23:20;12.00;89.20
33881;DHT22;20172;47.530;10.256;2023-06-14T01:25:59;12.10;89.50
33881;DHT22;20172;47.530;10.256;2023-06-14T01:28:28;12.20;90.00
33881;DHT22;20172;47.530;10.256;2023-06-14T01:31:12;12.10;90.10
33881;DHT22;20172;47.530;10.256;2023-06-14T01:33:52;12.10;90.20
33881;DHT22;20172;47.530;10.256;2023-06-14T01:36:19;12.10;90.60
33881;DHT22;20172;47.530;10.256;2023-06-14T01:38:45;12.10;90.50
33881;DHT22;20172;47.530;10.256;2023-06-14T01:41:17;12.10;90.50
33881;DHT22;20172;47.530;10.256;2023-06-14T01:43:53;12.10;90.00
33881;DHT22;20172;47.530;10.256;2023-06-14T01:49:37;11.80;89.90
33881;DHT22;20172;47.530;10.256;2023-06-14T01:52:08;11.80;89.10
33881;DHT22;20172;47.530;10.256;2023-06-14T01:54:46;11.70;88.80
33881;DHT22;20172;47.530;10.256;2023-06-14T01:57:35;11.70;88.30
33881;DHT22;20172;47.530;10.256;2023-06-14T02:00:06;11.80;90.30
33881;DHT22;20172;47.530;10.256;2023-06-14T02:02:58;11.80;90.70
33881;DHT22;20172;47.530;10.256;2023-06-14T02:05:56;11.70;91.20
33881;DHT22;20172;47.530;10.256;2023-06-14T02:08:56;11.60;90.40
33881;DHT22;20172;47.530;10.256;2023-06-14T02:11:37;11.40;90.20
33881;DHT22;20172;47.530;10.256;2023-06-14T02:14:03;11.40;90.30
33881;DHT22;20172;47.530;10.256;2023-06-14T02:16:50;11.40;90.10
33881;DHT22;20172;47.530;10.256;2023-06-14T02:19:29;11.40;90.20
33881;DHT22;20172;47.530;10.256;2023-06-14T02:22:15;11.40;90.70
33881;DHT22;20172;47.530;10.256;2023-06-14T02:25:03;11.40;90.70
33881;DHT22;20172;47.530;10.256;2023-06-14T02:28:04;11.40;91.40
33881;DHT22;20172;47.530;10.256;2023-06-14T02:31:05;11.40;91.70
33881;DHT22;20172;47.530;10.256;2023-06-14T02:33:39;11.30;91.90
33881;DHT22;20172;47.530;10.256;2023-06-14T02:36:27;11.20;92.20
33881;DHT22;20172;47.530;10.256;2023-06-14T02:39:11;11.10;92.50
33881;DHT22;20172;47.530;10.256;2023-06-14T02:41:42;11.00;92.40
33881;DHT22;20172;47.530;10.256;2023-06-14T02:44:31;10.90;92.10
33881;DHT22;20172;47.530;10.256;2023-06-14T02:46:57;11.00;92.20
33881;DHT22;20172;47.530;10.256;2023-06-14T02:49:24;11.10;92.00
33881;DHT22;20172;47.530;10.256;2023-06-14T02:51:49;11.10;92.00
33881;DHT22;20172;47.530;10.256;2023-06-14T02:54:15;11.00;92.10
33881;DHT22;20172;47.530;10.256;2023-06-14T02:56:43;11.10;92.30
33881;DHT22;20172;47.530;10.256;2023-06-14T02:59:12;11.10;92.20
33881;DHT22;20172;47.530;10.256;2023-06-14T03:01:47;10.90;92.60
33881;DHT22;20172;47.530;10.256;2023-06-14T03:04:16;10.80;92.60
33881;DHT22;20172;47.530;10.256;2023-06-14T03:07:05;10.80;92.60
33881;DHT22;20172;47.530;10.256;2023-06-14T03:09:40;10.70;93.10
33881;DHT22;20172;47.530;10.256;2023-06-14T03:12:28;10.70;93.30
33881;DHT22;20172;47.530;10.256;2023-06-14T03:14:59;10.70;93.30
33881;DHT22;20172;47.530;10.256;2023-06-14T03:20:50;10.60;93.30
33881;DHT22;20172;47.530;10.256;2023-06-14T03:23:36;10.60;93.20
33881;DHT22;20172;47.530;10.256;2023-06-14T03:26:23;10.70;92.90
33881;DHT22;20172;47.530;10.256;2023-06-14T03:34:44;10.60;93.00
33881;DHT22;20172;47.530;10.256;2023-06-14T03:37:10;10.60;92.80
33881;DHT22;20172;47.530;10.256;2023-06-14T03:39:36;10.60;92.70
33881;DHT22;20172;47.530;10.256;2023-06-14T03:42:02;10.50;92.30
33881;DHT22;20172;47.530;10.256;2023-06-14T03:44:27;10.60;92.40
33881;DHT22;20172;47.530;10.256;2023-06-14T03:46:53;10.60;92.30
33881;DHT22;20172;47.530;10.256;2023-06-14T03:49:19;10.80;92.10
33881;DHT22;20172;47.530;10.256;2023-06-14T03:51:44;10.80;92.00
33881;DHT22;20172;47.530;10.256;2023-06-14T03:54:18;10.80;92.00
33881;DHT22;20172;47.530;10.256;2023-06-14T03:56:46;10.90;92.60
33881;DHT22;20172;47.530;10.256;2023-06-14T03:59:13;10.90;92.80
33881;DHT22;20172;47.530;10.256;2023-06-14T04:01:39;10.80;92.80
33881;DHT22;20172;47.530;10.256;2023-06-14T04:04:11;10.80;92.70
33881;DHT22;20172;47.530;10.256;2023-06-14T04:06:37;10.70;93.60
33881;DHT22;20172;47.530;10.256;2023-06-14T04:09:03;10.60;93.60
33881;DHT22;20172;47.530;10.256;2023-06-14T04:11:30;10.50;93.90
33881;DHT22;20172;47.530;10.256;2023-06-14T04:13:58;10.60;94.20
33881;DHT22;20172;47.530;10.256;2023-06-14T04:16:24;10.70;94.20
33881;DHT22;20172;47.530;10.256;2023-06-14T04:18:51;10.70;94.20
33881;DHT22;20172;47.530;10.256;2023-06-14T04:21:18;10.80;94.50
33881;DHT22;20172;47.530;10.256;2023-06-14T04:23:43;10.80;94.40
33881;DHT22;20172;47.530;10.256;2023-06-14T04:26:09;10.80;94.30
33881;DHT22;20172;47.530;10.256;2023-06-14T04:28:37;10.70;94.50
33881;DHT22;20172;47.530;10.256;2023-06-14T04:31:24;10.70;94.40
33881;DHT22;20172;47.530;10.256;2023-06-14T04:33:50;10.70;94.30
33881;DHT22;20172;47.530;10.256;2023-06-14T04:36:18;10.70;94.60
33881;DHT22;20172;47.530;10.256;2023-06-14T04:38:44;10.70;94.20
33881;DHT22;20172;47.530;10.256;2023-06-14T04:41:12;10.90;94.20
33881;DHT22;20172;47.530;10.256;2023-06-14T04:43:38;11.10;94.20
33881;DHT22;20172;47.530;10.256;2023-06-14T04:46:06;11.30;94.30
33881;DHT22;20172;47.530;10.256;2023-06-14T04:48:35;11.50;94.10
33881;DHT22;20172;47.530;10.256;2023-06-14T04:51:01;11.60;94.40
33881;DHT22;20172;47.530;10.256;2023-06-14T04:53:29;11.60;94.10
33881;DHT22;20172;47.530;10.256;2023-06-14T04:55:55;11.70;94.20
33881;DHT22;20172;47.530;10.256;2023-06-14T04:58:20;11.80;94.50
33881;DHT22;20172;47.530;10.256;2023-06-14T05:00:46;12.00;94.00
33881;DHT22;20172;47.530;10.256;2023-06-14T05:03:12;12.10;93.70
33881;DHT22;20172;47.530;10.256;2023-06-14T05:05:39;12.30;93.70
33881;DHT22;20172;47.530;10.256;2023-06-14T05:08:05;12.50;93.80
33881;DHT22;20172;47.530;10.256;2023-06-14T05:10:31;12.60;93.40
33881;DHT22;20172;47.530;10.256;2023-06-14T05:12:56;12.60;93.20
33881;DHT22;20172;47.530;10.256;2023-06-14T05:15:22;12.60;93.10
33881;DHT22;20172;47.530;10.256;2023-06-14T05:17:51;12.50;93.40
33881;DHT22;20172;47.530;10.256;2023-06-14T05:20:24;12.40;93.90
33881;DHT22;20172;47.530;10.256;2023-06-14T05:22:52;12.40;94.70
33881;DHT22;20172;47.530;10.256;2023-06-14T05:25:19;12.40;95.00
33881;DHT22;20172;47.530;10.256;2023-06-14T05:27:45;12.50;95.00
33881;DHT22;20172;47.530;10.256;2023-06-14T05:30:10;12.80;94.70
33881;DHT22;20172;47.530;10.256;2023-06-14T05:32:39;12.90;94.80
33881;DHT22;20172;47.530;10.256;2023-06-14T05:35:05;13.20;94.40
33881;DHT22;20172;47.530;10.256;2023-06-14T05:37:31;13.40;94.00
33881;DHT22;20172;47.530;10.256;2023-06-14T05:39:57;13.50;93.90
33881;DHT22;20172;47.530;10.256;2023-06-14T05:42:24;13.50;93.80
33881;DHT22;20172;47.530;10.256;2023-06-14T05:44:51;13.50;94.10
33881;DHT22;20172;47.530;10.256;2023-06-14T05:47:17;13.50;94.00
33881;DHT22;20172;47.530;10.256;2023-06-14T05:49:42;13.60;93.40
33881;DHT22;20172;47.530;10.256;2023-06-14T05:52:08;13.70;92.80
33881;DHT22;20172;47.530;10.256;2023-06-14T05:54:34;13.70;92.70
33881;DHT22;20172;47.530;10.256;2023-06-14T05:57:00;13.90;92.80
33881;DHT22;20172;47.530;10.256;2023-06-14T05:59:27;13.90;92.20
33881;DHT22;20172;47.530;10.256;2023-06-14T06:01:53;13.90;92.20
33881;DHT22;20172;47.530;10.256;2023-06-14T06:04:18;13.90;92.20
33881;DHT22;20172;47.530;10.256;2023-06-14T06:06:45;14.10;92.50
33881;DHT22;20172;47.530;10.256;2023-06-14T06:09:10;14.30;92.20
33881;DHT22;20172;47.530;10.256;2023-06-14T06:11:36;14.40;92.00
33881;DHT22;20172;47.530;10.256;2023-06-14T06:14:01;14.60;92.00
33881;DHT22;20172;47.530;10.256;2023-06-14T06:16:27;14.70;91.60
33881;DHT22;20172;47.530;10.256;2023-06-14T06:18:53;14.70;91.60
33881;DHT22;20172;47.530;10.256;2023-06-14T06:21:18;14.70;91.70
33881;DHT22;20172;47.530;10.256;2023-06-14T06:23:44;14.90;91.40
33881;DHT22;20172;47.530;10.256;2023-06-14T06:26:09;15.00;91.40
33881;DHT22;20172;47.530;10.256;2023-06-14T06:28:35;15.10;91.50
33881;DHT22;20172;47.530;10.256;2023-06-14T06:31:00;15.30;91.80
33881;DHT22;20172;47.530;10.256;2023-06-14T06:33:26;15.30;91.20
33881;DHT22;20172;47.530;10.256;2023-06-14T06:35:51;15.50;91.20
33881;DHT22;20172;47.530;10.256;2023-06-14T06:38:17;15.60;91.30
33881;DHT22;20172;47.530;10.256;2023-06-14T06:40:44;15.80;91.60
33881;DHT22;20172;47.530;10.256;2023-06-14T06:43:09;15.90;91.40
33881;DHT22;20172;47.530;10.256;2023-06-14T06:45:39;16.00;91.20
33881;DHT22;20172;47.530;10.256;2023-06-14T06:48:04;16.10;90.50
33881;DHT22;20172;47.530;10.256;2023-06-14T06:50:30;16.20;90.00
33881;DHT22;20172;47.530;10.256;2023-06-14T06:52:56;16.30;88.60
33881;DHT22;20172;47.530;10.256;2023-06-14T06:55:21;16.50;87.90
33881;DHT22;20172;47.530;10.256;2023-06-14T06:57:47;16.60;88.90
33881;DHT22;20172;47.530;10.256;2023-06-14T07:00:12;16.70;90.40
33881;DHT22;20172;47.530;10.256;2023-06-14T07:02:38;16.80;90.70
33881;DHT22;20172;47.530;10.256;2023-06-14T07:05:03;16.80;90.10
33881;DHT22;20172;47.530;10.256;2023-06-14T07:07:29;16.80;90.00
33881;DHT22;20172;47.530;10.256;2023-06-14T07:09:55;16.90;90.00
33881;DHT22;20172;47.530;10.256;2023-06-14T07:12:23;16.90;89.50
33881;DHT22;20172;47.530;10.256;2023-06-14T07:14:48;17.00;87.90
33881;DHT22;20172;47.530;10.256;2023-06-14T07:17:14;17.10;88.10
33881;DHT22;20172;47.530;10.256;2023-06-14T07:19:39;17.20;88.00
33881;DHT22;20172;47.530;10.256;2023-06-14T07:22:05;17.30;88.30
33881;DHT22;20172;47.530;10.256;2023-06-14T07:24:30;17.40;88.50
33881;DHT22;20172;47.530;10.256;2023-06-14T07:26:56;17.50;87.80
33881;DHT22;20172;47.530;10.256;2023-06-14T07:29:21;17.60;88.30
33881;DHT22;20172;47.530;10.256;2023-06-14T07:31:47;17.70;88.90
33881;DHT22;20172;47.530;10.256;2023-06-14T07:34:12;17.80;88.80
33881;DHT22;20172;47.530;10.256;2023-06-14T07:36:38;17.90;88.00
33881;DHT22;20172;47.530;10.256;2023-06-14T07:39:04;18.00;86.70
33881;DHT22;20172;47.530;10.256;2023-06-14T07:41:31;18.10;86.90
33881;DHT22;20172;47.530;10.256;2023-06-14T07:43:57;18.20;87.10
33881;DHT22;20172;47.530;10.256;2023-06-14T07:46:22;18.30;86.00
33881;DHT22;20172;47.530;10.256;2023-06-14T07:48:48;18.50;84.50
33881;DHT22;20172;47.530;10.256;2023-06-14T07:51:13;18.60;85.50
33881;DHT22;20172;47.530;10.256;2023-06-14T07:53:39;18.70;84.30
33881;DHT22;20172;47.530;10.256;2023-06-14T07:56:06;18.80;84.80
33881;DHT22;20172;47.530;10.256;2023-06-14T07:58:31;19.00;85.20
33881;DHT22;20172;47.530;10.256;2023-06-14T08:00:57;19.10;85.10
33881;DHT22;20172;47.530;10.256;2023-06-14T08:03:23;19.20;85.20
33881;DHT22;20172;47.530;10.256;2023-06-14T08:05:49;19.30;86.00
33881;DHT22;20172;47.530;10.256;2023-06-14T08:08:14;19.40;86.60
33881;DHT22;20172;47.530;10.256;2023-06-14T08:10:40;19.60;85.40
33881;DHT22;20172;47.530;10.256;2023-06-14T08:13:05;19.70;83.30
33881;DHT22;20172;47.530;10.256;2023-06-14T08:15:34;19.80;83.80
33881;DHT22;20172;47.530;10.256;2023-06-14T08:18:00;19.90;82.90
33881;DHT22;20172;47.530;10.256;2023-06-14T08:20:26;20.00;83.10
33881;DHT22;20172;47.530;10.256;2023-06-14T08:22:52;20.10;83.10
33881;DHT22;20172;47.530;10.256;2023-06-14T08:25:20;20.20;83.10
33881;DHT22;20172;47.530;10.256;2023-06-14T08:27:46;20.30;81.00
33881;DHT22;20172;47.530;10.256;2023-06-14T08:30:11;20.40;81.20
33881;DHT22;20172;47.530;10.256;2023-06-14T08:32:37;20.50;79.80
33881;DHT22;20172;47.530;10.256;2023-06-14T08:35:03;20.60;80.90
33881;DHT22;20172;47.530;10.256;2023-06-14T08:37:30;20.80;80.60
33881;DHT22;20172;47.530;10.256;2023-06-14T08:39:55;20.90;80.90
33881;DHT22;20172;47.530;10.256;2023-06-14T08:42:21;20.90;80.00
33881;DHT22;20172;47.530;10.256;2023-06-14T08:44:49;21.00;79.40
33881;DHT22;20172;47.530;10.256;2023-06-14T08:47:15;21.10;79.10
33881;DHT22;20172;47.530;10.256;2023-06-14T08:49:45;21.20;78.00
33881;DHT22;20172;47.530;10.256;2023-06-14T08:52:12;21.30;77.10
33881;DHT22;20172;47.530;10.256;2023-06-14T08:54:38;21.50;77.30
33881;DHT22;20172;47.530;10.256;2023-06-14T08:57:10;21.60;74.00
33881;DHT22;20172;47.530;10.256;2023-06-14T08:59:37;21.80;72.60
33881;DHT22;20172;47.530;10.256;2023-06-14T09:02:09;21.90;72.70
33881;DHT22;20172;47.530;10.256;2023-06-14T09:04:38;22.00;72.70
33881;DHT22;20172;47.530;10.256;2023-06-14T09:07:05;22.00;71.70
33881;DHT22;20172;47.530;10.256;2023-06-14T09:09:31;22.10;72.40
33881;DHT22;20172;47.530;10.256;2023-06-14T09:11:57;22.10;71.80
33881;DHT22;20172;47.530;10.256;2023-06-14T09:14:23;22.20;71.60
33881;DHT22;20172;47.530;10.256;2023-06-14T09:16:52;22.30;71.70
33881;DHT22;20172;47.530;10.256;2023-06-14T09:19:21;22.30;72.30
33881;DHT22;20172;47.530;10.256;2023-06-14T09:21:47;22.40;70.00
33881;DHT22;20172;47.530;10.256;2023-06-14T09:24:13;22.40;72.20
33881;DHT22;20172;47.530;10.256;2023-06-14T09:26:39;22.50;71.40
33881;DHT22;20172;47.530;10.256;2023-06-14T09:29:05;22.60;69.60
33881;DHT22;20172;47.530;10.256;2023-06-14T09:31:31;22.60;70.80
33881;DHT22;20172;47.530;10.256;2023-06-14T09:33:57;22.70;69.00
33881;DHT22;20172;47.530;10.256;2023-06-14T09:36:24;22.80;69.10
33881;DHT22;20172;47.530;10.256;2023-06-14T09:41:19;22.90;69.70
33881;DHT22;20172;47.530;10.256;2023-06-14T09:43:46;22.90;70.10
33881;DHT22;20172;47.530;10.256;2023-06-14T09:46:12;23.00;70.40
33881;DHT22;20172;47.530;10.256;2023-06-14T09:48:38;23.10;70.60
33881;DHT22;20172;47.530;10.256;2023-06-14T09:51:09;23.20;69.30
33881;DHT22;20172;47.530;10.256;2023-06-14T09:53:35;23.30;68.50
33881;DHT22;20172;47.530;10.256;2023-06-14T09:56:01;23.30;68.70
33881;DHT22;20172;47.530;10.256;2023-06-14T09:58:27;23.40;69.00
33881;DHT22;20172;47.530;10.256;2023-06-14T10:00:53;23.40;68.10
33881;DHT22;20172;47.530;10.256;2023-06-14T10:03:27;23.50;67.80
33881;DHT22;20172;47.530;10.256;2023-06-14T10:05:53;23.60;68.60
33881;DHT22;20172;47.530;10.256;2023-06-14T10:08:23;23.70;68.80
33881;DHT22;20172;47.530;10.256;2023-06-14T10:10:51;23.80;70.10
33881;DHT22;20172;47.530;10.256;2023-06-14T10:13:17;23.90;68.60
33881;DHT22;20172;47.530;10.256;2023-06-14T10:15:54;24.00;67.10
33881;DHT22;20172;47.530;10.256;2023-06-14T10:23:20;24.10;65.60
33881;DHT22;20172;47.530;10.256;2023-06-14T10:25:49;24.20;66.70
33881;DHT22;20172;47.530;10.256;2023-06-14T10:28:19;24.30;64.90
33881;DHT22;20172;47.530;10.256;2023-06-14T10:33:32;24.30;65.80
33881;DHT22;20172;47.530;10.256;2023-06-14T10:38:36;24.50;66.10
33881;DHT22;20172;47.530;10.256;2023-06-14T10:41:03;24.60;65.60
33881;DHT22;20172;47.530;10.256;2023-06-14T10:43:29;24.70;65.30
33881;DHT22;20172;47.530;10.256;2023-06-14T10:48:43;24.80;65.80
33881;DHT22;20172;47.530;10.256;2023-06-14T10:51:16;25.00;67.10
33881;DHT22;20172;47.530;10.256;2023-06-14T10:53:45;25.10;65.50
33881;DHT22;20172;47.530;10.256;2023-06-14T10:56:22;25.10;65.90
33881;DHT22;20172;47.530;10.256;2023-06-14T10:58:49;25.20;66.60
33881;DHT22;20172;47.530;10.256;2023-06-14T11:01:16;25.30;67.10
33881;DHT22;20172;47.530;10.256;2023-06-14T11:06:14;25.40;64.50
33881;DHT22;20172;47.530;10.256;2023-06-14T11:11:25;25.50;66.00
33881;DHT22;20172;47.530;10.256;2023-06-14T11:13:56;25.50;65.30
33881;DHT22;20172;47.530;10.256;2023-06-14T11:16:21;25.50;64.00
33881;DHT22;20172;47.530;10.256;2023-06-14T11:18:50;25.50;65.70
33881;DHT22;20172;47.530;10.256;2023-06-14T11:21:16;25.50;63.80
33881;DHT22;20172;47.530;10.256;2023-06-14T11:23:48;25.60;64.50
33881;DHT22;20172;47.530;10.256;2023-06-14T11:26:13;25.60;67.40
33881;DHT22;20172;47.530;10.256;2023-06-14T11:28:40;25.80;64.10
33881;DHT22;20172;47.530;10.256;2023-06-14T11:31:06;25.90;63.80
33881;DHT22;20172;47.530;10.256;2023-06-14T11:33:31;25.80;63.40
33881;DHT22;20172;47.530;10.256;2023-06-14T11:35:57;25.90;63.20
33881;DHT22;20172;47.530;10.256;2023-06-14T11:38:23;25.90;62.30
33881;DHT22;20172;47.530;10.256;2023-06-14T11:40:48;26.00;63.40
33881;DHT22;20172;47.530;10.256;2023-06-14T11:43:14;26.10;66.50
33881;DHT22;20172;47.530;10.256;2023-06-14T11:45:43;26.20;63.90
33881;DHT22;20172;47.530;10.256;2023-06-14T11:48:18;26.30;64.00
33881;DHT22;20172;47.530;10.256;2023-06-14T11:50:43;26.30;62.20
33881;DHT22;20172;47.530;10.256;2023-06-14T11:53:09;26.40;63.50
33881;DHT22;20172;47.530;10.256;2023-06-14T11:55:38;26.60;64.10
33881;DHT22;20172;47.530;10.256;2023-06-14T11:58:05;26.70;62.70
33881;DHT22;20172;47.530;10.256;2023-06-14T12:00:31;26.80;63.00
33881;DHT22;20172;47.530;10.256;2023-06-14T12:02:57;26.80;63.60
33881;DHT22;20172;47.530;10.256;2023-06-14T12:05:22;26.90;62.40
33881;DHT22;20172;47.530;10.256;2023-06-14T12:07:48;26.90;63.30
33881;DHT22;20172;47.530;10.256;2023-06-14T12:10:15;27.00;61.60
33881;DHT22;20172;47.530;10.256;2023-06-14T12:12:41;27.10;63.20
33881;DHT22;20172;47.530;10.256;2023-06-14T12:15:07;27.20;64.20
33881;DHT22;20172;47.530;10.256;2023-06-14T12:17:33;27.30;63.30
33881;DHT22;20172;47.530;10.256;2023-06-14T12:20:04;27.30;62.20
33881;DHT22;20172;47.530;10.256;2023-06-14T12:22:31;27.30;63.30
33881;DHT22;20172;47.530;10.256;2023-06-14T12:24:56;27.30;64.30
33881;DHT22;20172;47.530;10.256;2023-06-14T12:27:22;27.40;63.50
33881;DHT22;20172;47.530;10.256;2023-06-14T12:29:58;27.50;62.50
33881;DHT22;20172;47.530;10.256;2023-06-14T12:32:23;27.60;60.10
33881;DHT22;20172;47.530;10.256;2023-06-14T12:34:49;27.60;63.30
33881;DHT22;20172;47.530;10.256;2023-06-14T12:37:14;27.50;62.00
33881;DHT22;20172;47.530;10.256;2023-06-14T12:39:41;27.60;60.30
33881;DHT22;20172;47.530;10.256;2023-06-14T12:42:06;27.60;60.00
33881;DHT22;20172;47.530;10.256;2023-06-14T12:44:32;27.70;61.50
33881;DHT22;20172;47.530;10.256;2023-06-14T12:47:01;27.80;61.10
33881;DHT22;20172;47.530;10.256;2023-06-14T12:49:26;27.90;60.70
33881;DHT22;20172;47.530;10.256;2023-06-14T12:51:52;28.00;61.50
33881;DHT22;20172;47.530;10.256;2023-06-14T12:54:17;28.10;61.50
33881;DHT22;20172;47.530;10.256;2023-06-14T12:56:43;28.20;59.60
33881;DHT22;20172;47.530;10.256;2023-06-14T12:59:10;28.20;59.00
33881;DHT22;20172;47.530;10.256;2023-06-14T13:01:37;28.20;59.50
33881;DHT22;20172;47.530;10.256;2023-06-14T13:04:03;28.10;60.80
33881;DHT22;20172;47.530;10.256;2023-06-14T13:06:28;28.20;60.30
33881;DHT22;20172;47.530;10.256;2023-06-14T13:08:56;28.10;58.40
33881;DHT22;20172;47.530;10.256;2023-06-14T13:11:23;28.00;59.40
33881;DHT22;20172;47.530;10.256;2023-06-14T13:13:48;28.00;59.20
33881;DHT22;20172;47.530;10.256;2023-06-14T13:16:13;28.10;59.00
33881;DHT22;20172;47.530;10.256;2023-06-14T13:18:39;28.20;59.80
33881;DHT22;20172;47.530;10.256;2023-06-14T13:21:05;28.30;59.30
33881;DHT22;20172;47.530;10.256;2023-06-14T13:23:31;28.30;59.50
33881;DHT22;20172;47.530;10.256;2023-06-14T13:25:56;28.30;59.60
33881;DHT22;20172;47.530;10.256;2023-06-14T13:28:22;28.30;58.60
33881;DHT22;20172;47.530;10.256;2023-06-14T13:30:47;28.20;58.90
33881;DHT22;20172;47.530;10.256;2023-06-14T13:33:13;28.20;59.60
33881;DHT22;20172;47.530;10.256;2023-06-14T13:35:38;28.10;58.60
33881;DHT22;20172;47.530;10.256;2023-06-14T13:38:04;27.80;57.20
33881;DHT22;20172;47.530;10.256;2023-06-14T13:40:30;27.80;60.00
33881;DHT22;20172;47.530;10.256;2023-06-14T13:42:55;27.80;58.40
33881;DHT22;20172;47.530;10.256;2023-06-14T13:45:21;27.80;59.60
33881;DHT22;20172;47.530;10.256;2023-06-14T13:47:46;27.70;58.20
33881;DHT22;20172;47.530;10.256;2023-06-14T13:50:13;27.70;59.90
33881;DHT22;20172;47.530;10.256;2023-06-14T13:52:39;27.80;61.00
33881;DHT22;20172;47.530;10.256;2023-06-14T13:55:05;27.80;60.50
33881;DHT22;20172;47.530;10.256;2023-06-14T13:57:31;27.80;62.10
33881;DHT22;20172;47.530;10.256;2023-06-14T13:59:57;27.60;59.10
33881;DHT22;20172;47.530;10.256;2023-06-14T14:02:28;27.70;58.90
33881;DHT22;20172;47.530;10.256;2023-06-14T14:04:54;27.60;57.50
33881;DHT22;20172;47.530;10.256;2023-06-14T14:07:20;27.60;59.80
33881;DHT22;20172;47.530;10.256;2023-06-14T14:09:46;27.70;59.60
33881;DHT22;20172;47.530;10.256;2023-06-14T14:12:12;27.70;59.20
33881;DHT22;20172;47.530;10.256;2023-06-14T14:14:37;27.70;59.20
33881;DHT22;20172;47.530;10.256;2023-06-14T14:17:03;27.80;59.80
33881;DHT22;20172;47.530;10.256;2023-06-14T14:19:29;27.90;58.50
33881;DHT22;20172;47.530;10.256;2023-06-14T14:21:54;28.00;59.30
33881;DHT22;20172;47.530;10.256;2023-06-14T14:24:20;27.90;58.80
33881;DHT22;20172;47.530;10.256;2023-06-14T14:26:46;27.90;59.20
33881;DHT22;20172;47.530;10.256;2023-06-14T14:29:14;27.90;59.10
33881;DHT22;20172;47.530;10.256;2023-06-14T14:31:39;27.80;59.50
33881;DHT22;20172;47.530;10.256;2023-06-14T14:34:05;27.80;59.20
33881;DHT22;20172;47.530;10.256;2023-06-14T14:36:30;27.70;58.70
33881;DHT22;20172;47.530;10.256;2023-06-14T14:38:56;27.50;58.70
33881;DHT22;20172;47.530;10.256;2023-06-14T14:41:21;27.50;59.00
33881;DHT22;20172;47.530;10.256;2023-06-14T14:43:47;27.50;59.50
33881;DHT22;20172;47.530;10.256;2023-06-14T14:46:13;27.40;59.50
33881;DHT22;20172;47.530;10.256;2023-06-14T14:48:38;27.40;59.60
33881;DHT22;20172;47.530;10.256;2023-06-14T14:51:04;27.40;59.60
33881;DHT22;20172;47.530;10.256;2023-06-14T14:53:29;27.20;58.20
33881;DHT22;20172;47.530;10.256;2023-06-14T14:55:55;27.20;59.70
33881;DHT22;20172;47.530;10.256;2023-06-14T14:58:20;27.10;59.00
33881;DHT22;20172;47.530;10.256;2023-06-14T15:00:46;27.00;58.70
33881;DHT22;20172;47.530;10.256;2023-06-14T15:03:12;27.00;58.90
33881;DHT22;20172;47.530;10.256;2023-06-14T15:05:38;27.00;59.40
33881;DHT22;20172;47.530;10.256;2023-06-14T15:08:04;26.90;59.00
33881;DHT22;20172;47.530;10.256;2023-06-14T15:10:30;26.90;59.70
33881;DHT22;20172;47.530;10.256;2023-06-14T15:12:56;26.80;59.20
33881;DHT22;20172;47.530;10.256;2023-06-14T15:15:21;26.80;60.20
33881;DHT22;20172;47.530;10.256;2023-06-14T15:17:47;26.70;59.30
33881;DHT22;20172;47.530;10.256;2023-06-14T15:20:12;26.60;58.90
33881;DHT22;20172;47.530;10.256;2023-06-14T15:22:40;26.60;59.20
33881;DHT22;20172;47.530;10.256;2023-06-14T15:25:06;26.40;59.40
33881;DHT22;20172;47.530;10.256;2023-06-14T15:27:32;26.30;59.00
33881;DHT22;20172;47.530;10.256;2023-06-14T15:29:57;26.10;59.40
33881;DHT22;20172;47.530;10.256;2023-06-14T15:32:23;26.00;58.70
33881;DHT22;20172;47.530;10.256;2023-06-14T15:34:48;25.90;60.40
33881;DHT22;20172;47.530;10.256;2023-06-14T15:37:14;25.80;59.40
33881;DHT22;20172;47.530;10.256;2023-06-14T15:39:39;25.80;59.30
33881;DHT22;20172;47.530;10.256;2023-06-14T15:42:05;25.80;60.80
33881;DHT22;20172;47.530;10.256;2023-06-14T15:44:31;25.80;62.80
33881;DHT22;20172;47.530;10.256;2023-06-14T15:46:57;25.70;61.40
33881;DHT22;20172;47.530;10.256;2023-06-14T15:49:22;25.70;61.30
33881;DHT22;20172;47.530;10.256;2023-06-14T15:51:48;25.80;60.50
33881;DHT22;20172;47.530;10.256;2023-06-14T15:54:13;25.70;60.60
33881;DHT22;20172;47.530;10.256;2023-06-14T15:56:39;25.60;59.90